createdAt,value
2018-10-04T00:03:44.270Z,7.80
2018-10-04T00:08:46.394Z,7.70
2018-10-04T00:13:48.671Z,7.70
2018-10-04T00:18:50.861Z,7.70
2018-10-04T00:23:52.990Z,7.80
2018-10-04T00:28:55.142Z,7.80
2018-10-04T00:33:57.306Z,7.80
2018-10-04T00:38:59.478Z,7.70
2018-10-04T00:44:01.626Z,7.70
2018-10-04T00:49:03.765Z,7.70
2018-10-04T00:54:06.118Z,7.50
2018-10-04T00:59:08.558Z,7.30
2018-10-04T01:04:10.701Z,7.10
2018-10-04T01:09:12.842Z,7.10
2018-10-04T01:14:14.970Z,7.10
2018-10-04T01:19:17.130Z,7.20
2018-10-04T01:24:19.255Z,7.10
2018-10-04T01:29:21.397Z,7.10
2018-10-04T01:34:23.524Z,7.10
2018-10-04T01:39:25.666Z,7.10
2018-10-04T01:44:27.802Z,7.10
2018-10-04T01:49:29.961Z,7.10
2018-10-04T01:54:32.108Z,7.10
2018-10-04T01:59:34.237Z,7.00
2018-10-04T02:04:36.374Z,6.80
2018-10-04T02:09:38.514Z,6.60
2018-10-04T02:14:40.657Z,6.60
2018-10-04T02:19:42.794Z,6.50
2018-10-04T02:24:44.930Z,6.50
2018-10-04T02:29:47.078Z,6.50
2018-10-04T02:34:49.205Z,6.40
2018-10-04T02:39:51.346Z,6.40
2018-10-04T02:44:53.465Z,6.40
2018-10-04T02:49:55.617Z,6.30
2018-10-04T02:55:03.462Z,6.10
2018-10-04T03:00:05.811Z,6.00
2018-10-04T03:05:07.946Z,6.10
2018-10-04T03:10:10.106Z,6.10
2018-10-04T03:15:12.266Z,6.10
2018-10-04T03:25:23.254Z,5.90
2018-10-04T03:30:25.390Z,5.80
2018-10-04T03:35:27.534Z,5.90
2018-10-04T03:40:29.673Z,5.90
2018-10-04T03:45:31.814Z,6.00
2018-10-04T03:50:33.950Z,6.00
2018-10-04T03:55:36.123Z,6.00
2018-10-04T04:00:38.826Z,5.90
2018-10-04T04:05:40.961Z,6.00
2018-10-04T04:10:43.134Z,6.10
2018-10-04T04:15:45.251Z,6.10
2018-10-04T04:20:47.387Z,6.00
2018-10-04T04:25:49.520Z,5.90
2018-10-04T04:30:51.702Z,5.70
2018-10-04T04:35:53.784Z,5.60
2018-10-04T04:40:55.932Z,5.50
2018-10-04T04:45:58.286Z,5.50
2018-10-04T04:51:00.434Z,5.50
2018-10-04T04:56:02.586Z,5.50
2018-10-04T05:01:04.758Z,5.50
2018-10-04T05:06:06.946Z,5.50
2018-10-04T05:11:09.046Z,5.50
2018-10-04T05:16:11.258Z,5.50
2018-10-04T05:21:13.322Z,5.50
2018-10-04T05:26:15.450Z,5.50
2018-10-04T05:31:17.610Z,5.50
2018-10-04T05:36:19.746Z,5.50
2018-10-04T05:41:21.886Z,5.50
2018-10-04T05:46:24.010Z,5.50
2018-10-04T05:51:26.143Z,5.50
2018-10-04T05:56:28.262Z,5.50
2018-10-04T06:01:30.382Z,5.40
2018-10-04T06:06:32.522Z,5.60
2018-10-04T06:11:34.664Z,5.80
2018-10-04T06:16:36.825Z,5.90
2018-10-04T06:21:38.965Z,6.30
2018-10-04T06:26:41.098Z,6.80
2018-10-04T06:31:43.230Z,7.10
2018-10-04T06:36:45.395Z,7.40
2018-10-04T06:41:47.517Z,7.50
2018-10-04T06:46:49.657Z,8.10
2018-10-04T06:51:51.790Z,8.50
2018-10-04T06:56:53.933Z,9.10
2018-10-04T07:01:56.098Z,9.50
2018-10-04T07:06:58.254Z,10.10
2018-10-04T07:12:00.377Z,10.60
2018-10-04T07:17:02.509Z,11.10
2018-10-04T07:22:04.673Z,11.70
2018-10-04T07:27:06.833Z,12.20
2018-10-04T07:32:08.989Z,12.40
2018-10-04T07:37:11.123Z,13.10
2018-10-04T07:42:13.277Z,13.70
2018-10-04T07:47:15.365Z,13.80
2018-10-04T07:52:17.510Z,14.30
2018-10-04T07:57:19.645Z,14.70
2018-10-04T08:02:21.777Z,15.40
2018-10-04T08:07:23.918Z,15.70
2018-10-04T08:12:26.046Z,16.10
2018-10-04T08:17:28.177Z,16.40
2018-10-04T08:22:30.322Z,16.70
2018-10-04T08:27:32.477Z,17.00
2018-10-04T08:32:34.694Z,17.20
2018-10-04T08:37:36.833Z,17.60
2018-10-04T08:42:38.978Z,18.10
2018-10-04T08:47:41.157Z,17.50
2018-10-04T08:52:48.897Z,18.70
2018-10-04T08:57:51.054Z,19.10
2018-10-04T09:02:53.382Z,19.10
2018-10-04T09:07:55.772Z,20.10
2018-10-04T09:12:57.793Z,20.60
2018-10-04T09:17:59.942Z,21.00
2018-10-04T09:23:02.095Z,20.30
2018-10-04T09:28:06.434Z,21.00
2018-10-04T09:33:08.566Z,21.50
2018-10-04T09:38:10.702Z,21.10
2018-10-04T09:43:12.842Z,22.10
2018-10-04T09:48:15.006Z,22.10
2018-10-04T09:53:17.173Z,22.60
2018-10-04T09:58:19.277Z,23.10
2018-10-04T10:03:21.454Z,22.00
2018-10-04T10:08:23.641Z,21.40
2018-10-04T10:13:25.797Z,20.50
2018-10-04T10:18:27.922Z,20.20
2018-10-04T10:23:30.045Z,20.10
2018-10-04T10:28:32.518Z,19.60
2018-10-04T10:33:34.655Z,20.20
2018-10-04T10:38:36.786Z,19.80
2018-10-04T10:43:38.910Z,19.30
2018-10-04T10:48:41.040Z,19.10
2018-10-04T10:53:43.169Z,18.70
2018-10-04T10:58:45.318Z,18.60
2018-10-04T11:03:47.449Z,18.90
2018-10-04T11:08:49.598Z,18.80
2018-10-04T11:13:51.726Z,19.20
2018-10-04T11:18:53.854Z,18.90
2018-10-04T11:23:55.990Z,18.90
2018-10-04T11:28:58.144Z,18.60
2018-10-04T11:34:00.336Z,18.80
2018-10-04T11:39:02.662Z,18.70
2018-10-04T11:44:08.302Z,18.70
2018-10-04T11:49:10.466Z,18.60
2018-10-04T11:54:12.598Z,18.50
2018-10-04T11:59:14.725Z,18.60
2018-10-04T12:04:16.869Z,18.40
2018-10-04T12:09:18.998Z,18.40
2018-10-04T12:14:21.137Z,18.50
2018-10-04T12:19:23.270Z,18.60
2018-10-04T12:24:25.432Z,18.40
2018-10-04T12:29:27.561Z,18.50
2018-10-04T12:34:29.689Z,18.50
2018-10-04T12:39:31.837Z,18.40
2018-10-04T12:44:33.975Z,18.50
2018-10-04T12:49:36.148Z,18.60
2018-10-04T12:54:38.306Z,18.50
2018-10-04T12:59:40.701Z,18.40
2018-10-04T13:04:42.840Z,18.60
2018-10-04T13:09:44.970Z,18.60
2018-10-04T13:14:47.111Z,18.60
2018-10-04T13:19:49.251Z,18.50
2018-10-04T13:24:51.382Z,18.60
2018-10-04T13:29:53.542Z,18.70
2018-10-04T13:34:55.670Z,18.60
2018-10-04T13:39:57.845Z,18.60
2018-10-04T13:45:00.033Z,18.50
2018-10-04T13:50:02.162Z,18.60
2018-10-04T13:55:04.581Z,18.60
2018-10-04T14:00:06.734Z,18.70
2018-10-04T14:05:09.064Z,18.60
2018-10-04T14:10:11.238Z,18.70
2018-10-04T14:15:13.398Z,18.60
2018-10-04T14:20:15.605Z,18.80
2018-10-04T14:25:17.758Z,18.60
2018-10-04T14:30:19.902Z,18.60
2018-10-04T14:35:22.058Z,18.50
2018-10-04T14:40:24.222Z,18.60
2018-10-04T14:45:26.542Z,18.50
2018-10-04T14:50:28.686Z,18.50
2018-10-04T14:55:30.817Z,18.60
2018-10-04T15:00:32.963Z,18.60
2018-10-04T15:05:35.082Z,18.50
2018-10-04T15:10:37.222Z,18.40
2018-10-04T15:15:39.350Z,18.30
2018-10-04T15:20:41.461Z,18.30
2018-10-04T15:25:43.593Z,18.20
2018-10-04T15:30:45.772Z,18.20
2018-10-04T15:35:47.874Z,18.10
2018-10-04T15:40:50.041Z,18.00
2018-10-04T15:45:52.198Z,18.00
2018-10-04T15:50:54.345Z,17.90
2018-10-04T15:55:56.730Z,17.80
2018-10-04T16:00:58.876Z,17.70
2018-10-04T16:06:01.054Z,17.80
2018-10-04T16:11:03.229Z,17.80
2018-10-04T16:16:05.442Z,17.90
2018-10-04T16:21:07.607Z,17.90
2018-10-04T16:26:09.773Z,17.90
2018-10-04T16:31:11.907Z,17.80
2018-10-04T16:36:14.038Z,17.70
2018-10-04T16:41:16.204Z,17.60
2018-10-04T16:46:18.362Z,17.50
2018-10-04T16:51:20.534Z,17.30
2018-10-04T16:56:22.706Z,17.10
2018-10-04T17:01:24.865Z,17.00
2018-10-04T17:06:27.126Z,16.90
2018-10-04T17:11:29.830Z,16.70
2018-10-04T17:16:32.130Z,16.30
2018-10-04T17:21:34.587Z,16.20
2018-10-04T17:26:37.127Z,16.00
2018-10-04T17:31:39.414Z,15.90
2018-10-04T17:36:41.538Z,15.70
2018-10-04T17:41:43.724Z,15.50
2018-10-04T17:46:45.875Z,15.30
2018-10-04T17:51:48.046Z,15.10
2018-10-04T17:56:50.255Z,14.90
2018-10-04T18:01:52.402Z,14.80
2018-10-04T18:06:54.566Z,14.70
2018-10-04T18:11:56.765Z,14.50
2018-10-04T18:16:58.942Z,14.40
2018-10-04T18:22:01.162Z,14.30
2018-10-04T18:27:05.589Z,14.20
2018-10-04T18:32:07.878Z,14.20
2018-10-04T18:37:10.452Z,14.10
2018-10-04T18:42:12.638Z,13.90
2018-10-04T18:47:14.932Z,13.70
2018-10-04T18:52:17.136Z,13.30
2018-10-04T18:57:20.482Z,13.40
2018-10-04T19:02:23.311Z,13.50
2018-10-04T19:07:25.585Z,13.40
2018-10-04T19:12:27.770Z,13.40
2018-10-04T19:17:29.946Z,13.20
2018-10-04T19:22:32.138Z,13.20
2018-10-04T19:27:34.431Z,12.90
2018-10-04T19:32:36.632Z,12.70
2018-10-04T19:37:38.724Z,12.70
2018-10-04T19:42:41.010Z,12.70
2018-10-04T19:47:43.160Z,12.70
2018-10-04T19:52:45.322Z,12.30
2018-10-04T19:57:47.497Z,12.30
2018-10-04T20:02:49.617Z,12.40
2018-10-04T20:07:51.749Z,12.30
2018-10-04T20:12:53.904Z,12.20
2018-10-04T20:17:56.054Z,12.10
2018-10-04T20:22:58.231Z,12.10
2018-10-04T20:28:00.438Z,12.10
2018-10-04T20:33:02.577Z,12.10
2018-10-04T20:38:04.714Z,12.10
2018-10-04T20:43:07.203Z,12.00
2018-10-04T20:48:09.361Z,11.80
2018-10-04T20:53:11.518Z,11.60
2018-10-04T20:58:13.646Z,11.50
2018-10-04T21:03:15.782Z,11.20
2018-10-04T21:08:17.966Z,11.10
2018-10-04T21:13:20.118Z,10.90
2018-10-04T21:18:22.288Z,10.90
2018-10-04T21:23:24.428Z,10.60
2018-10-04T21:28:26.606Z,10.60
2018-10-04T21:33:28.737Z,10.60
2018-10-04T21:38:30.878Z,10.50
2018-10-04T21:43:33.034Z,10.30
2018-10-04T21:48:35.173Z,10.30
2018-10-04T21:53:38.106Z,10.30
2018-10-04T21:58:40.226Z,10.30
2018-10-04T22:03:42.388Z,10.10
2018-10-04T22:08:44.514Z,10.20
2018-10-04T22:13:46.646Z,10.20
2018-10-04T22:18:48.781Z,10.10
2018-10-04T22:23:50.918Z,10.00
2018-10-04T22:28:53.062Z,9.80
2018-10-04T22:33:55.192Z,9.70
2018-10-04T22:38:57.334Z,9.70
2018-10-04T22:43:59.471Z,9.50
2018-10-04T22:49:01.623Z,9.40
2018-10-04T22:54:03.765Z,9.20
2018-10-04T22:59:06.241Z,9.20
2018-10-04T23:04:08.390Z,9.00
2018-10-04T23:09:10.570Z,8.80
2018-10-04T23:14:12.775Z,8.70
2018-10-04T23:19:14.914Z,8.70
2018-10-04T23:24:17.058Z,8.90
2018-10-04T23:29:19.228Z,8.80
2018-10-04T23:34:21.382Z,8.70
2018-10-04T23:39:23.518Z,8.70
2018-10-04T23:44:25.660Z,8.70
2018-10-04T23:49:27.813Z,8.70
2018-10-04T23:54:30.000Z,8.60
2018-10-04T23:59:32.123Z,8.60
